Brandon, MS (39042)

12:19 AM CST on December 29, 2014 (GMT -0600)
Country Meadows | Change Station
CLOSE
Current Station
Personal Weather Station
Location: Brandon, MS
Elevation: 367 ft
Nearby Weather Stations

Elev 367 ft 32.25 °N, 90.01 °W | Updated 20 seconds ago

Overcast
Overcast
46.0 °F
Feels Like 43 °F
N
5.3
Wind Variable Wind from West

Today
High -- | Low -- °F
--% Chance of Precip.
Yesterday
High -- | Low -- °F
Precip. -- in
7:00 AM 5:03 PM
First Quarter, 55% visible
Pressure 30.13 in
Visibility 10.0 miles
Clouds Overcast 400 ft
Windchill 43 °F
Dew Point 46 °F
Humidity 99%
Rainfall 0.00 in
Snow Depth Not available.
UV 0 out of 12
Pollen .40 out of 12
Air Quality Not available.
Flu Activity Not available.
METAR KJAN 290554Z AUTO 31009KT 10SM -RA OVC004 08/08 A3013 RMK AO2 SLP202 P0002 60025 T00830078 10083 20083 401610083 55005

More Conditions Fewer Conditions

Pressure 30.13 in
Visibility 10.0 miles
Clouds Overcast 400 ft
Windchill 43 °F
Dew Point 46 °F
Humidity 99%
Rainfall 0.00 in
Snow Depth Not available.
UV 0 out of 12
Pollen .40 out of 12
Air Quality Not available.
Flu Activity Not available.
METAR KJAN 290554Z AUTO 31009KT 10SM -RA OVC004 08/08 A3013 RMK AO2 SLP202 P0002 60025 T00830078 10083 20083 401610083 55005

More Conditions Fewer Conditions

10-Day Weather Forecast

Almanac

Astronomy

Dec. 29, 2014 Rise Set
Actual Time
Civil Twilight
Nautical Twilight
Astronomical Twilight
Moon
Length of Visible Light
Length of Day
Tomorrow will be .
, % of the Moon is Illuminated

Today's Extremes

State Highs State Lows

Community

WunderPhotos

Upload Photos

1,781,544 photos uploaded!

WunderBlogs® & News

Nearby

Air Quality

  Air Quality AQ Index Pollutant
Not available.

Snow Depth

Station Depth Elevation

Earthquake Activity

City Distance Mag. Time & Date
Minimum magnitude displayed is 2.5.

Coastal Water Temperatures

Place Temperature

Nearby Weather Stations